Time;durP1;ratioP1;P1;durP2;ratioP2;P2;SDS_P1;SDS_P2;PMS_P1;PMS_P2;Temp;Humidity;BMP_temperature;BMP_pressure;BME280_temperature;BME280_humidity;BME280_pressure;Samples;Min_cycle;Max_cycle;Signal;HPM_P1;HPM_P2
2023/05/02 00:00:37;;;;;;;25.90;11.90;;;;;;;10.28;64.11;100189.64;218200;1288;139461;-87
2023/05/02 00:05:38;;;;;;;26.70;12.80;;;;;;;10.28;64.51;100187.29;218885;1288;138670;-87
2023/05/02 00:10:38;;;;;;;23.70;10.90;;;;;;;10.28;64.45;100179.90;218534;1288;138937;-86
2023/05/02 00:15:38;;;;;;;20.10;10.30;;;;;;;10.27;64.69;100173.05;219148;1288;138425;-88
2023/05/02 00:20:40;;;;;;;23.30;10.90;;;;;;;10.28;65.18;100170.71;218613;1288;139614;-87
2023/05/02 00:25:44;;;;;;;20.70;10.70;;;;;;;10.30;65.20;100167.65;218945;1288;139968;-88
2023/05/02 00:30:45;;;;;;;22.30;10.90;;;;;;;10.33;65.55;100167.67;218415;1288;139342;-86
2023/05/02 00:35:45;;;;;;;19.40;10.30;;;;;;;10.34;66.00;100161.89;218906;1288;138528;-86
2023/05/02 00:40:48;;;;;;;20.60;11.00;;;;;;;10.39;66.20;100163.71;218371;1288;140244;-86
2023/05/02 00:45:49;;;;;;;22.80;12.40;;;;;;;10.42;66.46;100159.02;218985;1288;138560;-86
2023/05/02 00:50:49;;;;;;;20.10;11.10;;;;;;;10.46;66.68;100158.66;218754;1288;138694;-85
2023/05/02 00:55:50;;;;;;;22.70;10.30;;;;;;;10.50;67.09;100159.63;218977;1288;138598;-86
2023/05/02 01:01:28;;;;;;;21.70;10.80;;;;;;;10.56;67.44;100159.91;218575;1288;139285;-86
2023/05/02 01:06:40;;;;;;;19.00;9.90;;;;;;;10.62;67.74;100154.77;219061;1288;138467;-85
2023/05/02 01:12:17;;;;;;;19.80;9.70;;;;;;;10.70;67.97;100163.77;218490;1288;138955;-87
2023/05/02 01:17:20;;;;;;;18.80;9.10;;;;;;;10.78;68.45;100153.84;219029;1288;138315;-86
2023/05/02 01:22:23;;;;;;;17.30;9.20;;;;;;;10.84;68.93;100155.05;218376;1288;139038;-85
2023/05/02 01:27:49;;;;;;;17.90;9.00;;;;;;;10.93;69.13;100159.83;219010;1288;139314;-85
2023/05/02 01:32:52;;;;;;;21.60;9.90;;;;;;;11.00;69.32;100159.54;218432;1288;138993;-85
2023/05/02 01:37:56;;;;;;;16.80;9.30;;;;;;;11.07;69.57;100161.46;219087;1288;138538;-84
2023/05/02 01:42:58;;;;;;;17.20;8.70;;;;;;;11.15;69.66;100164.41;218509;1288;139095;-86
2023/05/02 01:48:00;;;;;;;19.10;9.60;;;;;;;11.21;70.18;100161.14;219174;1288;138404;-85
2023/05/02 01:53:03;;;;;;;19.70;9.50;;;;;;;11.25;70.10;100164.63;218653;1288;139286;-85
2023/05/02 01:58:05;;;;;;;17.40;9.50;;;;;;;11.31;69.83;100158.27;219112;1288;140004;-85
2023/05/02 02:03:07;;;;;;;17.30;8.60;;;;;;;11.36;70.57;100156.48;218753;1288;139591;-85
2023/05/02 02:08:07;;;;;;;15.70;8.70;;;;;;;11.39;70.93;100158.13;219108;1288;139113;-84
2023/05/02 02:13:27;;;;;;;13.90;7.40;;;;;;;11.42;71.12;100153.64;218561;1288;139974;-84
2023/05/02 02:18:31;;;;;;;18.00;9.70;;;;;;;11.44;71.09;100155.71;219059;1288;139151;-85
2023/05/02 02:23:33;;;;;;;15.00;8.90;;;;;;;11.48;71.41;100162.73;218582;1288;139681;-85
2023/05/02 02:28:34;;;;;;;17.90;9.10;;;;;;;11.53;71.53;100166.92;218866;1288;139084;-84
2023/05/02 02:33:34;;;;;;;16.70;9.50;;;;;;;11.56;71.80;100173.62;218653;1288;139592;-85
2023/05/02 02:38:43;;;;;;;19.30;10.40;;;;;;;11.58;72.02;100176.33;219311;1288;95684;-84
2023/05/02 02:43:50;;;;;;;17.30;10.00;;;;;;;11.60;72.20;100184.52;218529;1288;139527;-84
2023/05/02 02:49:07;;;;;;;16.70;9.40;;;;;;;11.62;72.02;100188.39;219026;1288;139329;-84
2023/05/02 02:54:16;;;;;;;13.10;8.30;;;;;;;11.61;73.24;100199.48;218680;1288;139499;-84
2023/05/02 02:59:22;;;;;;;16.70;8.90;;;;;;;11.59;73.50;100210.73;218534;1288;139363;-84
2023/05/02 03:04:23;;;;;;;16.60;9.60;;;;;;;11.53;73.95;100209.75;219015;1288;139213;-84
2023/05/02 03:09:26;;;;;;;17.80;9.60;;;;;;;11.51;73.85;100214.86;218514;1288;139825;-84
2023/05/02 03:14:26;;;;;;;17.60;9.80;;;;;;;11.51;73.92;100214.08;219255;1288;95639;-83
2023/05/02 03:19:27;;;;;;;15.30;8.10;;;;;;;11.52;73.98;100217.78;218543;1288;138935;-84
2023/05/02 03:24:27;;;;;;;17.10;9.80;;;;;;;11.51;74.25;100209.75;219032;1288;139351;-83
2023/05/02 03:29:27;;;;;;;14.90;8.80;;;;;;;11.51;74.60;100209.35;218533;1288;139557;-83
2023/05/02 03:34:28;;;;;;;21.10;10.90;;;;;;;11.50;74.39;100209.35;219044;1288;141117;-84
2023/05/02 03:39:28;;;;;;;20.60;10.80;;;;;;;11.51;74.17;100224.15;218543;1288;140387;-84
2023/05/02 03:44:28;;;;;;;16.70;9.50;;;;;;;11.54;74.53;100237.00;219254;1288;95851;-84
2023/05/02 03:49:29;;;;;;;18.70;10.10;;;;;;;11.55;75.13;100243.30;218548;1288;139394;-84
2023/05/02 03:54:32;;;;;;;22.20;11.70;;;;;;;11.54;75.04;100254.17;219105;1288;139251;-84
2023/05/02 03:59:34;;;;;;;23.20;9.00;;;;;;;11.54;75.50;100262.60;218498;1288;139941;-84
2023/05/02 04:04:35;;;;;;;22.20;11.90;;;;;;;11.54;76.13;100272.75;218906;1288;139180;-85
2023/05/02 04:09:35;;;;;;;20.30;11.60;;;;;;;11.54;75.91;100281.26;218355;1288;140131;-86
2023/05/02 04:14:35;;;;;;;20.50;11.50;;;;;;;11.56;75.65;100296.31;219281;1288;95758;-84
2023/05/02 04:19:36;;;;;;;19.10;11.10;;;;;;;11.58;75.44;100307.91;218512;1288;278578;-85
2023/05/02 04:24:36;;;;;;;21.50;11.50;;;;;;;11.61;75.23;100311.02;219156;1288;139222;-85
2023/05/02 04:29:36;;;;;;;18.10;10.40;;;;;;;11.65;75.50;100314.34;218553;1288;140607;-83
2023/05/02 04:34:36;;;;;;;20.70;10.30;;;;;;;11.68;75.86;100314.52;219077;1288;139817;-83
2023/05/02 04:39:37;;;;;;;16.80;10.10;;;;;;;11.70;76.00;100313.80;218513;1288;140411;-83
2023/05/02 04:44:37;;;;;;;18.60;10.00;;;;;;;11.71;77.02;100305.79;219217;1288;95684;-83
2023/05/02 04:49:37;;;;;;;17.40;9.30;;;;;;;11.70;77.72;100302.48;218583;1288;139635;-84
2023/05/02 04:54:38;;;;;;;17.80;10.10;;;;;;;11.68;77.99;100308.06;218928;1288;139207;-83
2023/05/02 04:59:38;;;;;;;18.90;9.10;;;;;;;11.68;78.61;100313.80;218564;1288;139739;-84
2023/05/02 05:04:39;;;;;;;16.50;8.60;;;;;;;11.68;78.67;100313.96;219047;1288;139750;-83
2023/05/02 05:09:39;;;;;;;16.80;8.60;;;;;;;11.64;79.88;100313.15;218563;1288;139945;-84
2023/05/02 05:14:40;;;;;;;18.40;9.10;;;;;;;11.61;80.26;100311.80;219230;1288;95669;-84
2023/05/02 05:19:40;;;;;;;16.30;8.40;;;;;;;11.62;80.70;100313.14;218609;1288;139834;-83
2023/05/02 05:24:40;;;;;;;19.50;9.90;;;;;;;11.62;81.71;100312.91;219169;1288;139064;-84
2023/05/02 05:29:41;;;;;;;17.20;9.40;;;;;;;11.64;82.38;100308.52;218576;1288;139254;-83
2023/05/02 05:34:41;;;;;;;16.90;9.30;;;;;;;11.70;83.48;100319.09;219169;1288;139806;-84
2023/05/02 05:39:42;;;;;;;17.00;9.40;;;;;;;11.73;84.29;100318.09;218647;1288;140444;-84
2023/05/02 05:44:42;;;;;;;17.30;9.40;;;;;;;11.76;85.29;100318.56;219284;1288;96112;-84
2023/05/02 05:49:42;;;;;;;19.60;10.00;;;;;;;11.86;85.87;100322.95;218603;1288;139283;-84
2023/05/02 05:54:43;;;;;;;18.50;9.80;;;;;;;12.00;85.72;100333.09;219151;1288;138967;-84
2023/05/02 05:59:43;;;;;;;17.00;9.60;;;;;;;12.11;85.42;100348.96;218499;1288;139487;-84
2023/05/02 06:04:44;;;;;;;18.80;9.50;;;;;;;12.25;84.51;100351.23;219208;1288;139025;-84
2023/05/02 06:09:45;;;;;;;16.60;9.40;;;;;;;12.39;83.70;100364.19;218583;1288;141268;-84
2023/05/02 06:14:45;;;;;;;19.70;10.30;;;;;;;12.53;83.99;100376.45;219286;1288;95712;-84
2023/05/02 06:19:46;;;;;;;15.90;9.20;;;;;;;12.68;84.01;100382.16;218555;1288;140805;-84
2023/05/02 06:24:46;;;;;;;15.80;7.80;;;;;;;12.85;83.83;100380.77;219120;1288;139067;-84
2023/05/02 06:29:50;;;;;;;13.10;7.20;;;;;;;13.04;83.03;100389.25;218629;1288;139160;-84
2023/05/02 06:34:50;;;;;;;13.90;7.60;;;;;;;13.24;81.81;100391.86;219178;1288;139166;-84
2023/05/02 06:39:50;;;;;;;13.40;6.80;;;;;;;13.45;80.59;100396.59;218634;1288;139014;-83
2023/05/02 06:44:51;;;;;;;12.40;6.10;;;;;;;13.67;80.30;100407.23;219189;1288;105500;-83
2023/05/02 06:49:52;;;;;;;12.20;5.90;;;;;;;13.90;79.69;100414.52;218625;1288;139823;-82
2023/05/02 06:54:53;;;;;;;14.40;6.20;;;;;;;14.14;78.69;100423.63;219094;1288;140157;-83
2023/05/02 06:59:53;;;;;;;14.10;5.80;;;;;;;14.36;77.36;100428.94;218382;1288;141369;-82
2023/05/02 07:04:53;;;;;;;12.70;6.50;;;;;;;14.57;76.63;100433.60;219218;1288;139189;-83
2023/05/02 07:09:54;;;;;;;11.50;5.70;;;;;;;14.72;75.74;100436.98;218622;1288;140508;-83
2023/05/02 07:14:54;;;;;;;10.40;5.80;;;;;;;14.87;75.61;100446.95;219245;1288;95938;-83
2023/05/02 07:19:55;;;;;;;14.20;6.40;;;;;;;15.00;75.14;100455.59;218541;1288;140295;-84
2023/05/02 07:25:02;;;;;;;11.60;5.90;;;;;;;15.12;74.55;100469.12;219069;1288;140650;-84
2023/05/02 07:30:04;;;;;;;14.80;6.80;;;;;;;15.23;73.11;100480.77;218513;1288;140229;-85
2023/05/02 07:35:05;;;;;;;11.20;5.70;;;;;;;15.31;72.08;100484.92;219068;1288;139937;-83
2023/05/02 07:40:06;;;;;;;14.40;7.70;;;;;;;15.45;72.63;100492.52;218588;1288;139491;-82
2023/05/02 07:45:07;;;;;;;11.40;5.80;;;;;;;15.65;72.61;100496.80;219305;1288;95689;-85
2023/05/02 07:50:08;;;;;;;12.10;5.60;;;;;;;15.85;70.99;100504.08;218545;1288;138994;-83
2023/05/02 07:55:09;;;;;;;11.10;4.70;;;;;;;16.03;70.03;100503.19;218892;1289;139886;-84
2023/05/02 08:00:10;;;;;;;11.10;4.60;;;;;;;16.22;68.71;100512.13;218603;1288;139768;-83
2023/05/02 08:05:11;;;;;;;10.50;5.20;;;;;;;16.39;67.67;100516.08;218893;1288;139215;-83
2023/05/02 08:10:11;;;;;;;11.30;5.10;;;;;;;16.58;66.58;100518.96;218605;1288;139860;-85
2023/05/02 08:15:12;;;;;;;11.50;6.30;;;;;;;16.83;65.79;100521.98;219234;1288;95727;-88
2023/05/02 08:20:13;;;;;;;12.30;5.60;;;;;;;17.03;64.22;100530.70;218544;1288;138230;-86
2023/05/02 08:25:13;;;;;;;10.10;5.70;;;;;;;17.29;64.13;100539.88;218882;1288;139241;-83
2023/05/02 08:30:14;;;;;;;12.30;6.10;;;;;;;17.59;63.84;100546.77;218391;1288;138967;-85
2023/05/02 08:35:15;;;;;;;11.50;6.20;;;;;;;17.99;63.08;100550.80;219092;1288;139439;-84
2023/05/02 08:40:16;;;;;;;12.70;6.40;;;;;;;18.49;63.27;100549.17;218624;1288;140283;-85
2023/05/02 08:45:17;;;;;;;9.70;5.60;;;;;;;19.17;63.41;100549.46;219268;1288;96104;-84
2023/05/02 08:50:20;;;;;;;13.50;6.80;;;;;;;20.03;62.28;100550.96;218597;1288;138594;-89
2023/05/02 08:55:26;;;;;;;14.40;6.40;;;;;;;20.68;58.66;100551.06;219148;1288;140314;-84
2023/05/02 09:00:28;;;;;;;13.80;7.10;;;;;;;21.31;56.25;100554.54;218368;1288;140104;-83
2023/05/02 09:05:35;;;;;;;15.30;6.20;;;;;;;21.89;53.56;100561.61;219074;1288;138362;-84
2023/05/02 09:10:36;;;;;;;13.00;6.50;;;;;;;22.37;52.25;100572.54;218339;1288;138750;-85
2023/05/02 09:15:37;;;;;;;11.50;6.40;;;;;;;22.71;49.51;100577.43;218926;1288;138669;-88
2023/05/02 09:20:39;;;;;;;12.10;6.00;;;;;;;22.95;48.53;100575.52;218440;1288;138457;-88
2023/05/02 09:25:40;;;;;;;12.20;4.80;;;;;;;23.33;48.13;100577.04;218973;1288;139302;-89
2023/05/02 09:30:42;;;;;;;11.00;5.90;;;;;;;23.86;48.03;100585.86;218271;1288;138419;-89
2023/05/02 09:35:54;;;;;;;12.70;6.10;;;;;;;24.52;47.42;100588.54;219145;1288;139446;-89
2023/05/02 09:40:55;;;;;;;13.60;6.10;;;;;;;25.08;43.52;100591.82;218481;1288;138612;-88
2023/05/02 09:45:57;;;;;;;11.30;6.20;;;;;;;25.39;45.25;100601.42;219106;1288;138336;-90
2023/05/02 09:50:58;;;;;;;10.40;5.00;;;;;;;25.83;44.79;100599.81;218680;1288;139279;-88
2023/05/02 09:56:03;;;;;;;9.30;5.00;;;;;;;26.36;43.95;100605.45;218946;1288;139041;-90
2023/05/02 10:01:04;;;;;;;11.60;5.10;;;;;;;27.02;42.93;100609.50;218358;1288;138653;-92
2023/05/02 10:06:07;;;;;;;11.10;3.70;;;;;;;27.39;39.99;100612.67;219125;1288;139315;-90
2023/05/02 10:11:11;;;;;;;8.80;3.90;;;;;;;27.79;40.21;100618.33;218646;1288;139242;-89
2023/05/02 10:16:12;;;;;;;8.60;4.10;;;;;;;28.25;39.32;100621.86;219012;1288;138613;-89
2023/05/02 10:21:16;;;;;;;7.70;3.60;;;;;;;28.57;38.78;100628.60;218486;1288;139655;-89
2023/05/02 10:26:17;;;;;;;10.40;3.80;;;;;;;28.96;38.66;100631.78;218662;1289;138039;-89
2023/05/02 10:31:20;;;;;;;9.50;3.60;;;;;;;29.07;36.83;100632.96;218445;1289;139263;-90
2023/05/02 10:36:21;;;;;;;7.70;4.00;;;;;;;28.90;37.01;100645.30;218972;1289;141792;-87
2023/05/02 10:41:26;;;;;;;9.30;3.60;;;;;;;29.26;36.27;100648.45;218346;1289;139532;-88
2023/05/02 10:46:40;;;;;;;8.30;3.10;;;;;;;29.37;35.02;100653.63;218947;1289;138211;-94
2023/05/02 10:51:42;;;;;;;7.20;3.70;;;;;;;28.91;34.71;100650.78;218020;1289;139095;-88
2023/05/02 10:57:02;;;;;;;8.10;3.30;;;;;;;28.80;36.05;100651.92;218880;1289;95725;-87
2023/05/02 11:02:27;;;;;;;7.50;3.20;;;;;;;29.08;36.27;100654.96;218300;1288;138800;-88
2023/05/02 11:07:28;;;;;;;6.30;3.10;;;;;;;29.23;36.09;100652.04;218971;1291;138379;-89
2023/05/02 11:12:47;;;;;;;6.30;2.80;;;;;;;29.35;34.49;100660.98;218436;1289;138276;-92
2023/05/02 11:18:02;;;;;;;5.90;2.50;;;;;;;28.90;33.75;100670.02;218837;1288;139427;-89
2023/05/02 11:23:14;;;;;;;9.10;2.40;;;;;;;28.85;34.56;100674.86;218170;1290;139480;-86
2023/05/02 11:28:37;;;;;;;7.90;2.40;;;;;;;28.89;33.66;100673.98;218874;1291;138873;-88
2023/05/02 11:33:37;;;;;;;4.70;2.20;;;;;;;28.35;34.21;100683.27;218306;1289;139039;-90
2023/05/02 11:38:38;;;;;;;6.00;2.30;;;;;;;28.07;34.36;100692.65;219030;1289;95753;-89
2023/05/02 11:43:38;;;;;;;7.10;2.80;;;;;;;27.83;35.46;100695.45;218445;1289;137990;-88
2023/05/02 11:48:40;;;;;;;7.20;2.80;;;;;;;27.84;34.35;100701.16;218972;1289;139768;-88
2023/05/02 11:53:41;;;;;;;7.90;3.90;;;;;;;27.87;35.49;100703.73;218266;1289;139942;-87
2023/05/02 11:58:43;;;;;;;6.70;3.30;;;;;;;27.64;34.07;100710.24;218925;1289;138151;-87
2023/05/02 12:03:43;;;;;;;7.60;4.10;;;;;;;26.96;35.16;100717.77;218301;1292;138938;-88
2023/05/02 12:08:44;;;;;;;12.10;6.90;;;;;;;26.54;36.68;100730.02;218999;1289;95668;-88
2023/05/02 12:13:46;;;;;;;9.50;6.20;;;;;;;26.31;36.57;100737.00;218208;1289;138825;-90
2023/05/02 12:18:47;;;;;;;14.70;8.30;;;;;;;25.82;37.56;100747.45;218768;1289;139985;-89
2023/05/02 12:23:48;;;;;;;12.70;6.20;;;;;;;25.56;38.62;100759.04;218417;1288;138610;-88
2023/05/02 12:28:50;;;;;;;11.20;5.10;;;;;;;25.34;38.63;100756.82;218778;1289;139985;-87
2023/05/02 12:33:54;;;;;;;9.90;5.00;;;;;;;25.23;39.47;100763.51;218147;1289;140000;-86
2023/05/02 12:38:58;;;;;;;9.60;5.50;;;;;;;25.00;40.04;100767.50;218927;1288;95644;-86
2023/05/02 12:43:59;;;;;;;9.00;5.20;;;;;;;24.91;40.85;100767.98;218609;1288;139503;-91
2023/05/02 12:49:05;;;;;;;9.50;5.50;;;;;;;24.85;40.71;100770.76;218353;1289;138288;-87
2023/05/02 12:54:06;;;;;;;10.40;5.30;;;;;;;24.46;40.73;100774.27;218996;1289;138829;-87
2023/05/02 12:59:39;;;;;;;12.60;5.60;;;;;;;24.16;42.12;100782.95;218313;1289;139021;-92
2023/05/02 13:04:40;;;;;;;9.90;5.40;;;;;;;23.74;42.24;100792.49;218579;1289;139471;-88
2023/05/02 13:09:41;;;;;;;9.80;5.00;;;;;;;23.44;43.52;100795.90;218213;1290;139342;-91
2023/05/02 13:14:43;;;;;;;10.50;4.90;;;;;;;23.43;44.07;100801.33;219004;1288;95994;-84
2023/05/02 13:19:43;;;;;;;7.70;4.00;;;;;;;23.45;44.55;100810.08;218356;1289;138981;-85
2023/05/02 13:24:45;;;;;;;6.70;3.70;;;;;;;23.41;44.22;100816.14;218898;1289;139151;-90
2023/05/02 13:29:46;;;;;;;7.50;3.40;;;;;;;23.24;43.85;100824.29;218322;1289;139366;-87
2023/05/02 13:34:46;;;;;;;6.70;3.40;;;;;;;22.86;43.68;100832.09;218936;1289;139525;-86
2023/05/02 13:39:47;;;;;;;5.50;2.70;;;;;;;22.47;44.02;100840.36;218213;1288;139292;-85
2023/05/02 13:44:47;;;;;;;7.00;2.40;;;;;;;22.45;45.28;100839.30;218845;1290;95747;-89
2023/05/02 13:49:48;;;;;;;4.90;2.50;;;;;;;22.57;45.67;100846.02;218380;1290;138557;-89
2023/05/02 13:54:48;;;;;;;3.40;2.00;;;;;;;22.45;44.75;100850.70;218952;1289;138404;-90
2023/05/02 13:59:50;;;;;;;5.80;2.10;;;;;;;22.33;44.48;100849.53;218484;1289;139462;-90
2023/05/02 14:04:50;;;;;;;3.50;1.60;;;;;;;22.15;44.84;100850.70;218727;1289;139048;-87
2023/05/02 14:09:51;;;;;;;6.00;2.50;;;;;;;22.29;44.86;100858.95;218423;1289;138374;-90
2023/05/02 14:14:51;;;;;;;5.30;2.20;;;;;;;22.09;44.43;100861.77;219021;1289;95599;-85
2023/05/02 14:19:52;;;;;;;4.20;2.50;;;;;;;22.01;45.26;100871.46;218384;1289;138058;-91
2023/05/02 14:24:52;;;;;;;3.40;1.60;;;;;;;21.98;45.20;100872.50;218952;1293;138200;-92
2023/05/02 14:29:52;;;;;;;3.00;1.70;;;;;;;21.78;44.69;100880.12;218439;1289;138294;-91
2023/05/02 14:34:53;;;;;;;4.90;1.40;;;;;;;21.57;44.97;100885.23;219051;1290;138319;-84
2023/05/02 14:39:55;;;;;;;2.60;1.40;;;;;;;21.43;45.66;100886.88;218445;1291;138753;-87
2023/05/02 14:44:55;;;;;;;4.60;1.50;;;;;;;21.42;45.72;100887.63;218911;1290;108555;-86
2023/05/02 14:49:56;;;;;;;2.70;1.40;;;;;;;21.37;46.02;100884.56;218342;1289;138797;-86
2023/05/02 14:55:00;;;;;;;3.60;1.70;;;;;;;21.33;45.92;100888.09;218898;1289;138110;-85
2023/05/02 15:00:00;;;;;;;3.30;1.50;;;;;;;21.20;45.96;100892.92;218314;1289;139991;-85
2023/05/02 15:05:06;;;;;;;2.50;1.20;;;;;;;21.13;46.46;100891.39;218953;1289;140015;-88
2023/05/02 15:10:07;;;;;;;;;;;;;;;21.02;46.08;100902.95;218439;1289;139558;-87
2023/05/02 15:15:10;;;;;;;3.50;1.30;;;;;;;20.70;46.06;100911.35;218993;1288;104998;-84
2023/05/02 15:20:11;;;;;;;3.90;2.00;;;;;;;20.49;46.83;100912.37;218397;1288;138742;-86
2023/05/02 15:25:11;;;;;;;5.20;2.30;;;;;;;20.37;46.76;100922.30;218921;1288;138308;-89
2023/05/02 15:30:12;;;;;;;5.90;2.00;;;;;;;20.17;47.28;100930.16;218365;1288;139581;-85
2023/05/02 15:35:13;;;;;;;5.20;1.60;;;;;;;20.19;47.77;100932.02;218864;1289;138282;-87
2023/05/02 15:40:13;;;;;;;3.90;1.80;;;;;;;20.12;48.28;100934.88;218484;1289;139268;-86
2023/05/02 15:45:14;;;;;;;4.70;2.10;;;;;;;20.04;49.00;100939.31;219073;1288;95632;-85
2023/05/02 15:50:15;;;;;;;4.50;1.60;;;;;;;20.08;50.06;100944.05;218417;1289;138438;-85
2023/05/02 15:55:15;;;;;;;2.60;1.30;;;;;;;20.11;49.50;100947.68;218950;1289;138311;-84
2023/05/02 16:00:16;;;;;;;3.50;1.40;;;;;;;20.04;49.15;100952.42;218398;1289;139026;-88
2023/05/02 16:05:17;;;;;;;4.40;2.00;;;;;;;19.91;49.13;100960.23;218938;1289;138263;-87
2023/05/02 16:10:18;;;;;;;5.70;2.30;;;;;;;19.71;48.92;100967.00;218371;1288;139691;-86
2023/05/02 16:15:20;;;;;;;3.90;1.60;;;;;;;19.51;49.04;100972.60;219079;1289;96487;-85
2023/05/02 16:20:20;;;;;;;5.80;2.20;;;;;;;19.27;49.63;100972.98;218256;1288;139260;-89
2023/05/02 16:25:21;;;;;;;5.00;1.80;;;;;;;19.11;50.45;100984.13;218903;1288;138188;-84
2023/05/02 16:30:22;;;;;;;5.50;2.20;;;;;;;18.91;50.75;100995.58;218262;1289;139199;-84
2023/05/02 16:35:22;;;;;;;8.80;2.60;;;;;;;18.77;51.60;101003.65;218828;1289;139463;-85
2023/05/02 16:40:23;;;;;;;6.90;2.70;;;;;;;18.52;51.97;101004.85;218362;1290;139127;-89
2023/05/02 16:45:24;;;;;;;9.80;2.70;;;;;;;18.26;52.21;101003.06;218867;1289;138117;-85
2023/05/02 16:50:25;;;;;;;6.30;2.40;;;;;;;18.10;52.83;101013.73;218333;1288;139147;-90
2023/05/02 16:55:25;;;;;;;7.10;2.70;;;;;;;17.84;52.97;101015.98;218668;1289;138361;-86
2023/05/02 17:00:26;;;;;;;8.40;4.40;;;;;;;17.64;54.03;101016.88;218363;1288;139153;-89
2023/05/02 17:05:26;;;;;;;9.60;3.30;;;;;;;17.51;54.48;101024.68;218756;1289;138529;-89
2023/05/02 17:10:27;;;;;;;10.10;3.40;;;;;;;17.38;55.01;101029.63;218163;1289;138741;-89
2023/05/02 17:15:27;;;;;;;5.40;2.80;;;;;;;17.24;55.47;101033.27;218935;1289;139272;-88
2023/05/02 17:20:28;;;;;;;6.70;2.80;;;;;;;17.10;55.55;101036.77;218494;1289;138042;-90
2023/05/02 17:25:29;;;;;;;8.60;3.00;;;;;;;16.90;55.39;101042.38;218957;1289;139108;-86
2023/05/02 17:30:30;;;;;;;6.60;2.50;;;;;;;16.74;55.72;101050.30;218368;1289;138989;-87
2023/05/02 17:35:31;;;;;;;9.40;3.30;;;;;;;16.62;56.53;101054.39;218790;1289;138261;-87
2023/05/02 17:40:32;;;;;;;10.70;3.60;;;;;;;16.46;56.51;101057.95;218297;1289;139693;-87
2023/05/02 17:45:32;;;;;;;8.60;4.20;;;;;;;16.35;56.94;101059.08;218930;1289;138662;-87
2023/05/02 17:50:37;;;;;;;8.30;3.30;;;;;;;16.20;57.65;101067.58;218474;1288;138790;-86
2023/05/02 17:55:37;;;;;;;11.20;4.80;;;;;;;16.08;58.20;101075.21;218837;1289;138043;-87
2023/05/02 18:00:39;;;;;;;36.50;22.10;;;;;;;15.94;58.45;101089.66;218433;1289;140315;-89
2023/05/02 18:05:39;;;;;;;9.70;3.70;;;;;;;15.68;58.80;101101.39;218883;1288;139406;-86
2023/05/02 18:10:40;;;;;;;9.70;4.10;;;;;;;15.40;58.85;101103.79;218442;1288;139420;-86
2023/05/02 18:15:41;;;;;;;7.60;3.10;;;;;;;15.18;59.31;101111.55;218876;1288;138340;-88
2023/05/02 18:20:41;;;;;;;13.60;3.90;;;;;;;15.05;59.81;101114.36;218401;1288;139077;-88
2023/05/02 18:25:42;;;;;;;9.40;3.20;;;;;;;14.94;60.05;101121.75;219052;1288;138269;-88
2023/05/02 18:30:43;;;;;;;8.30;4.00;;;;;;;14.74;60.62;101120.63;218607;1288;139071;-88
2023/05/02 18:35:47;;;;;;;9.10;4.10;;;;;;;14.59;60.93;101130.75;219121;1288;138313;-87
2023/05/02 18:40:48;;;;;;;11.80;4.10;;;;;;;14.42;61.23;101135.23;218536;1288;139159;-87
2023/05/02 18:45:48;;;;;;;10.20;3.80;;;;;;;14.22;61.45;101144.80;219118;1288;138602;-87
2023/05/02 18:50:50;;;;;;;12.00;4.60;;;;;;;14.05;61.90;101154.30;218539;1288;138325;-88
2023/05/02 18:55:54;;;;;;;9.70;4.30;;;;;;;13.86;61.82;101158.48;218916;1288;138587;-88
2023/05/02 19:00:55;;;;;;;14.70;4.10;;;;;;;13.69;62.31;101166.45;218535;1288;138290;-89
2023/05/02 19:05:56;;;;;;;11.50;3.70;;;;;;;13.46;62.52;101171.82;219152;1288;138385;-88
2023/05/02 19:10:57;;;;;;;12.30;4.70;;;;;;;13.27;63.03;101178.72;218573;1288;138568;-86
2023/05/02 19:15:57;;;;;;;12.90;4.40;;;;;;;13.14;63.20;101182.42;218972;1288;138512;-87
2023/05/02 19:20:58;;;;;;;13.50;5.40;;;;;;;13.05;63.49;101182.30;218504;1288;139068;-88
2023/05/02 19:26:08;;;;;;;13.80;6.40;;;;;;;12.96;63.96;101193.85;219036;1288;138460;-87
2023/05/02 19:31:17;;;;;;;10.90;5.80;;;;;;;12.90;64.58;101196.98;218530;1288;138248;-87
2023/05/02 19:36:21;;;;;;;8.30;4.10;;;;;;;12.85;64.78;101201.25;218696;1288;138932;-87
2023/05/02 19:41:23;;;;;;;10.40;5.40;;;;;;;12.76;65.06;101204.60;218469;1288;138875;-87
2023/05/02 19:46:24;;;;;;;11.20;5.50;;;;;;;12.67;65.29;101214.48;219047;1288;138333;-87
2023/05/02 19:51:26;;;;;;;11.50;5.90;;;;;;;12.57;65.48;101214.95;218316;1288;138726;-87
2023/05/02 19:56:27;;;;;;;11.40;5.00;;;;;;;12.46;65.83;101224.88;218898;1288;95702;-86
2023/05/02 20:01:30;;;;;;;9.60;4.50;;;;;;;12.33;66.10;101230.90;218456;1288;138592;-87
2023/05/02 20:06:31;;;;;;;13.90;4.80;;;;;;;12.17;66.43;101234.66;218872;1288;138788;-87
2023/05/02 20:11:31;;;;;;;11.00;4.30;;;;;;;12.00;66.81;101238.59;218336;1288;139460;-87
2023/05/02 20:16:33;;;;;;;10.80;3.60;;;;;;;11.82;67.51;101241.59;219112;1288;138325;-88
2023/05/02 20:21:34;;;;;;;12.20;4.70;;;;;;;11.68;68.03;101244.36;218365;1288;138774;-87
2023/05/02 20:26:34;;;;;;;13.10;4.70;;;;;;;11.52;68.57;101250.08;219200;1288;95976;-87
2023/05/02 20:31:39;;;;;;;10.10;4.20;;;;;;;11.34;69.04;101260.51;218349;1288;138547;-87
2023/05/02 20:36:40;;;;;;;14.90;4.30;;;;;;;11.21;69.60;101268.26;219144;1288;138942;-87
2023/05/02 20:41:41;;;;;;;12.10;5.20;;;;;;;11.07;69.86;101279.58;218503;1288;139313;-87
2023/05/02 20:46:42;;;;;;;13.70;5.30;;;;;;;10.93;70.57;101284.30;218831;1288;139189;-86
2023/05/02 20:51:44;;;;;;;15.80;6.70;;;;;;;10.79;71.01;101284.34;218636;1288;139663;-87
2023/05/02 20:56:44;;;;;;;14.10;6.80;;;;;;;10.62;71.23;101288.35;219177;1288;95727;-86
2023/05/02 21:01:45;;;;;;;15.70;5.80;;;;;;;10.47;72.05;101296.78;218541;1288;140133;-87
2023/05/02 21:06:45;;;;;;;11.40;4.40;;;;;;;10.36;72.04;101305.52;219040;1288;139410;-87
2023/05/02 21:11:46;;;;;;;13.40;4.70;;;;;;;10.26;71.82;101314.95;218582;1288;140286;-86
2023/05/02 21:16:48;;;;;;;11.30;4.50;;;;;;;10.16;72.20;101318.06;219112;1288;139347;-89
2023/05/02 21:21:48;;;;;;;8.80;4.10;;;;;;;10.09;71.80;101326.28;218401;1288;140439;-87
2023/05/02 21:26:49;;;;;;;9.20;3.10;;;;;;;10.06;71.73;101329.09;219308;1288;95640;-87
2023/05/02 21:31:49;;;;;;;11.20;3.70;;;;;;;10.03;71.25;101335.91;218474;1288;139261;-87
2023/05/02 21:36:50;;;;;;;11.90;3.40;;;;;;;10.01;70.84;101337.97;219049;1288;138851;-87
2023/05/02 21:41:50;;;;;;;8.40;3.40;;;;;;;10.00;70.56;101339.75;218559;1288;140240;-87
2023/05/02 21:46:50;;;;;;;9.20;3.20;;;;;;;10.00;70.14;101339.58;219129;1288;138832;-89
2023/05/02 21:51:51;;;;;;;9.30;3.00;;;;;;;10.00;69.95;101336.05;218593;1288;139616;-88
2023/05/02 21:56:52;;;;;;;10.40;3.10;;;;;;;10.00;69.57;101337.55;219015;1288;95626;-87
2023/05/02 22:01:53;;;;;;;7.10;2.70;;;;;;;10.00;69.50;101337.55;218379;1288;138907;-88
2023/05/02 22:06:53;;;;;;;9.10;2.80;;;;;;;9.99;68.96;101339.09;219186;1288;139454;-88
2023/05/02 22:11:54;;;;;;;5.70;2.60;;;;;;;9.96;68.74;101340.59;218629;1288;140519;-88
2023/05/02 22:16:57;;;;;;;8.00;2.70;;;;;;;9.94;68.57;101349.33;219078;1288;138697;-87
2023/05/02 22:22:00;;;;;;;8.60;2.80;;;;;;;9.92;68.15;101360.49;218415;1288;139506;-87
2023/05/02 22:27:01;;;;;;;6.90;2.70;;;;;;;9.89;68.47;101368.05;218945;1288;107061;-86
2023/05/02 22:32:01;;;;;;;8.90;2.90;;;;;;;9.87;68.33;101372.37;218284;1289;139445;-87
2023/05/02 22:37:02;;;;;;;7.00;2.40;;;;;;;9.85;68.18;101379.70;218909;1289;138974;-87
2023/05/02 22:42:03;;;;;;;5.40;2.40;;;;;;;9.82;68.08;101380.86;218416;1289;138692;-87